createdAt,value
2018-12-29T00:02:12.702Z,178.80
2018-12-29T00:04:42.203Z,190.33
2018-12-29T00:07:12.087Z,177.67
2018-12-29T00:09:41.255Z,182.70
2018-12-29T00:12:10.808Z,199.53
2018-12-29T00:14:40.112Z,180.60
2018-12-29T00:17:11.104Z,183.63
2018-12-29T00:19:40.319Z,178.20
2018-12-29T00:22:10.249Z,180.97
2018-12-29T00:24:39.744Z,174.33
2018-12-29T00:27:09.370Z,174.93
2018-12-29T00:29:38.533Z,172.63
2018-12-29T00:32:07.743Z,176.43
2018-12-29T00:34:37.597Z,199.80
2018-12-29T00:37:07.430Z,179.43
2018-12-29T00:39:36.929Z,196.27
2018-12-29T00:42:06.197Z,170.10
2018-12-29T00:44:35.674Z,178.30
2018-12-29T00:47:04.882Z,180.60
2018-12-29T00:49:34.068Z,173.57
2018-12-29T00:52:03.327Z,177.77
2018-12-29T00:54:32.932Z,177.77
2018-12-29T00:57:02.406Z,173.73
2018-12-29T00:59:32.225Z,187.90
2018-12-29T01:02:02.271Z,180.00
2018-12-29T01:04:31.426Z,183.10
2018-12-29T01:07:00.602Z,153.87
2018-12-29T01:09:29.825Z,173.40
2018-12-29T01:11:59.738Z,173.27
2018-12-29T01:14:29.283Z,162.00
2018-12-29T01:16:58.478Z,172.40
2018-12-29T01:19:28.089Z,184.67
2018-12-29T01:21:57.281Z,171.40
2018-12-29T01:24:27.356Z,165.67
2018-12-29T01:26:56.575Z,157.37
2018-12-29T01:29:25.811Z,168.97
2018-12-29T01:31:55.291Z,195.50
2018-12-29T01:34:24.831Z,173.13
2018-12-29T01:36:54.199Z,152.23
2018-12-29T01:39:24.034Z,153.37
2018-12-29T01:41:53.246Z,147.93
2018-12-29T01:44:22.714Z,169.53
2018-12-29T01:46:52.351Z,165.23
2018-12-29T01:49:21.817Z,157.67
2018-12-29T01:51:51.202Z,147.50
2018-12-29T01:54:20.386Z,163.93
2018-12-29T01:56:49.676Z,157.73
2018-12-29T01:59:19.138Z,148.60
2018-12-29T02:01:48.952Z,160.10
2018-12-29T02:04:18.868Z,172.03
2018-12-29T02:06:48.355Z,174.53
2018-12-29T02:09:17.908Z,169.20
2018-12-29T02:11:47.086Z,162.97
2018-12-29T02:14:16.590Z,159.80
2018-12-29T02:16:46.124Z,150.13
2018-12-29T02:19:15.868Z,168.73
2018-12-29T02:21:45.305Z,158.50
2018-12-29T02:24:14.486Z,153.77
2018-12-29T02:26:44.317Z,173.20
2018-12-29T02:29:14.039Z,154.40
2018-12-29T02:31:43.923Z,157.83
2018-12-29T02:34:13.131Z,146.97
2018-12-29T02:36:42.325Z,135.17
2018-12-29T02:39:12.135Z,167.43
2018-12-29T02:41:41.352Z,138.73
2018-12-29T02:44:10.851Z,153.20
2018-12-29T02:46:40.372Z,140.70
2018-12-29T02:49:09.869Z,148.17
2018-12-29T02:51:39.661Z,134.33
2018-12-29T02:54:09.511Z,145.40
2018-12-29T02:56:39.131Z,129.47
2018-12-29T02:59:08.322Z,148.73
2018-12-29T03:01:37.739Z,135.67
2018-12-29T03:04:07.291Z,130.20
2018-12-29T03:06:36.460Z,136.60
2018-12-29T03:09:07.179Z,127.83
2018-12-29T03:11:36.786Z,148.20
2018-12-29T03:14:06.285Z,150.77
2018-12-29T03:16:35.472Z,143.47
2018-12-29T03:19:04.651Z,143.53
2018-12-29T03:21:34.201Z,125.83
2018-12-29T03:24:03.415Z,154.20
2018-12-29T03:26:32.638Z,141.53
2018-12-29T03:29:01.817Z,154.20
2018-12-29T03:31:31.380Z,136.77
2018-12-29T03:34:00.597Z,137.27
2018-12-29T03:36:29.753Z,153.70
2018-12-29T03:38:59.148Z,133.00
2018-12-29T03:41:28.468Z,148.83
2018-12-29T03:43:57.619Z,131.60
2018-12-29T03:46:27.059Z,147.97
2018-12-29T03:48:57.333Z,162.63
2018-12-29T03:51:26.529Z,146.53
2018-12-29T03:53:56.138Z,145.37
2018-12-29T03:56:25.594Z,147.93
2018-12-29T03:58:55.125Z,147.40
2018-12-29T04:01:24.307Z,158.40
2018-12-29T04:03:53.860Z,142.60
2018-12-29T04:06:23.045Z,129.47
2018-12-29T04:09:31.966Z,152.60
2018-12-29T04:12:03.015Z,153.43
2018-12-29T04:14:32.456Z,137.97
2018-12-29T04:17:02.429Z,157.60
2018-12-29T04:19:31.643Z,139.03
2018-12-29T04:22:00.819Z,169.60
2018-12-29T04:24:30.012Z,144.10
2018-12-29T04:26:59.270Z,164.27
2018-12-29T04:29:29.266Z,145.37
2018-12-29T04:31:58.417Z,166.30
2018-12-29T04:34:27.600Z,156.60
2018-12-29T04:36:57.151Z,142.83
2018-12-29T04:39:26.735Z,143.00
2018-12-29T04:41:55.946Z,150.77
2018-12-29T04:44:25.811Z,164.33
2018-12-29T04:46:54.962Z,156.10
2018-12-29T04:49:24.539Z,152.47
2018-12-29T04:51:53.738Z,155.77
2018-12-29T04:54:22.944Z,160.00
2018-12-29T04:56:52.478Z,140.57
2018-12-29T04:59:21.988Z,143.37
2018-12-29T05:01:51.536Z,145.07
2018-12-29T05:04:20.736Z,146.10
2018-12-29T05:06:49.881Z,149.10
2018-12-29T05:09:19.084Z,176.87
2018-12-29T05:11:48.254Z,148.17
2018-12-29T05:14:17.543Z,153.50
2018-12-29T05:16:46.717Z,153.23
2018-12-29T05:19:15.921Z,147.97
2018-12-29T05:21:45.297Z,145.30
2018-12-29T05:24:14.963Z,146.47
2018-12-29T05:26:44.146Z,134.07
2018-12-29T05:29:13.384Z,157.77
2018-12-29T05:31:42.972Z,155.67
2018-12-29T05:34:12.525Z,155.13
2018-12-29T05:36:42.039Z,153.17
2018-12-29T05:39:11.386Z,144.53
2018-12-29T05:41:40.925Z,143.20
2018-12-29T05:44:10.087Z,151.70
2018-12-29T05:46:40.109Z,149.47
2018-12-29T05:49:09.650Z,178.93
2018-12-29T05:51:38.832Z,148.90
2018-12-29T05:54:08.217Z,157.50
2018-12-29T05:56:37.386Z,167.67
2018-12-29T05:59:06.871Z,187.87
2018-12-29T06:01:36.452Z,154.20
2018-12-29T06:04:06.304Z,152.43
2018-12-29T06:06:36.018Z,171.43
2018-12-29T06:09:07.148Z,161.83
2018-12-29T06:11:36.323Z,176.00
2018-12-29T06:14:05.504Z,174.47
2018-12-29T06:16:34.772Z,185.37
2018-12-29T06:19:04.337Z,169.60
2018-12-29T06:21:33.761Z,205.13
2018-12-29T06:24:03.005Z,149.13
2018-12-29T06:26:32.571Z,166.30
2018-12-29T06:29:03.118Z,156.07
2018-12-29T06:31:32.271Z,172.33
2018-12-29T06:34:02.138Z,173.47
2018-12-29T06:36:31.381Z,189.87
2018-12-29T06:39:00.698Z,155.43
2018-12-29T06:41:29.896Z,190.07
2018-12-29T06:43:59.069Z,176.77
2018-12-29T06:46:34.763Z,173.53
2018-12-29T06:48:59.537Z,173.80
2018-12-29T06:51:29.052Z,186.07
2018-12-29T06:53:59.384Z,179.93
2018-12-29T06:56:28.611Z,197.87
2018-12-29T06:58:57.819Z,171.17
2018-12-29T07:01:27.525Z,203.67
2018-12-29T07:03:57.118Z,178.83
2018-12-29T07:06:26.542Z,186.23
2018-12-29T07:08:56.069Z,173.13
2018-12-29T07:11:25.249Z,185.43
2018-12-29T07:13:55.108Z,189.60
2018-12-29T07:16:24.746Z,162.40
2018-12-29T07:18:53.952Z,171.30
2018-12-29T07:21:23.109Z,155.20
2018-12-29T07:23:52.580Z,168.20
2018-12-29T07:26:21.856Z,170.50
2018-12-29T07:28:51.128Z,171.73
2018-12-29T07:31:20.360Z,161.90
2018-12-29T07:33:49.949Z,174.57
2018-12-29T07:36:19.309Z,169.37
2018-12-29T07:38:48.941Z,178.93
2018-12-29T07:41:18.125Z,167.10
2018-12-29T07:43:47.851Z,181.47
2018-12-29T07:46:17.033Z,158.97
2018-12-29T07:48:46.568Z,162.43
2018-12-29T07:51:16.890Z,161.17
2018-12-29T07:53:46.521Z,161.60
2018-12-29T07:56:15.685Z,166.90
2018-12-29T07:58:44.862Z,134.07
2018-12-29T08:01:14.393Z,149.83
2018-12-29T08:03:43.544Z,161.70
2018-12-29T08:06:13.103Z,155.67
2018-12-29T08:08:42.306Z,155.73
2018-12-29T08:11:12.219Z,148.80
2018-12-29T08:13:41.395Z,130.00
2018-12-29T08:16:10.613Z,160.60
2018-12-29T08:18:40.404Z,167.73
2018-12-29T08:21:09.582Z,161.33
2018-12-29T08:23:39.143Z,157.80
2018-12-29T08:26:08.657Z,179.23
2018-12-29T08:28:37.903Z,167.13
2018-12-29T08:31:07.367Z,159.73
2018-12-29T08:33:36.898Z,169.33
2018-12-29T08:36:06.081Z,177.17
2018-12-29T08:38:54.647Z,159.87
2018-12-29T08:41:24.725Z,177.93
2018-12-29T08:43:54.333Z,181.20
2018-12-29T08:46:23.738Z,178.03
2018-12-29T08:48:52.953Z,159.53
2018-12-29T08:51:22.443Z,173.73
2018-12-29T08:53:52.175Z,176.37
2018-12-29T08:56:21.800Z,166.13
2018-12-29T08:58:50.968Z,165.73
2018-12-29T09:01:20.468Z,162.37
2018-12-29T09:03:49.949Z,177.60
2018-12-29T09:06:19.143Z,142.20
2018-12-29T09:08:48.340Z,133.53
2018-12-29T09:11:17.553Z,144.33
2018-12-29T09:13:47.136Z,147.53
2018-12-29T09:16:16.954Z,150.17
2018-12-29T09:18:49.789Z,157.33
2018-12-29T09:21:18.981Z,158.20
2018-12-29T09:23:48.168Z,142.70
2018-12-29T09:26:17.780Z,142.47
2018-12-29T09:28:48.037Z,126.13
2018-12-29T09:31:18.191Z,136.20
2018-12-29T09:33:47.519Z,133.80
2018-12-29T09:36:17.042Z,160.12
2018-12-29T09:38:46.231Z,148.77
2018-12-29T09:41:15.453Z,142.33
2018-12-29T09:43:44.660Z,131.63
2018-12-29T09:46:14.130Z,140.77
2018-12-29T09:48:43.646Z,123.43
2018-12-29T09:51:13.171Z,133.17
2018-12-29T09:53:42.743Z,137.27
2018-12-29T09:56:11.929Z,131.67
2018-12-29T09:58:41.154Z,124.30
2018-12-29T10:01:10.384Z,131.53
2018-12-29T10:03:39.554Z,120.97
2018-12-29T10:06:08.786Z,124.60
2018-12-29T10:08:38.797Z,123.13
2018-12-29T10:11:08.000Z,120.67
2018-12-29T10:13:38.987Z,130.77
2018-12-29T10:16:08.541Z,118.47
2018-12-29T10:18:38.066Z,128.27
2018-12-29T10:21:07.873Z,123.17
2018-12-29T10:23:37.808Z,110.77
2018-12-29T10:26:07.040Z,124.80
2018-12-29T10:28:36.348Z,127.00
2018-12-29T10:31:05.638Z,116.20
2018-12-29T10:33:35.909Z,115.97
2018-12-29T10:36:05.765Z,125.73
2018-12-29T10:38:35.308Z,114.53
2018-12-29T10:41:05.254Z,126.23
2018-12-29T10:43:35.719Z,109.00
2018-12-29T10:46:04.987Z,118.53
2018-12-29T10:48:34.764Z,100.77
2018-12-29T10:51:06.297Z,103.90
2018-12-29T10:53:36.108Z,115.80
2018-12-29T10:56:05.657Z,101.87
2018-12-29T10:58:35.664Z,97.50
2018-12-29T11:01:04.986Z,109.20
2018-12-29T11:03:34.177Z,88.13
2018-12-29T11:06:03.390Z,96.77
2018-12-29T11:08:33.038Z,102.03
2018-12-29T11:11:02.594Z,105.53
2018-12-29T11:13:32.591Z,98.30
2018-12-29T11:16:02.410Z,103.27
2018-12-29T11:18:31.574Z,98.57
2018-12-29T11:21:02.454Z,90.37
2018-12-29T11:23:32.049Z,88.73
2018-12-29T11:26:01.869Z,89.43
2018-12-29T11:28:31.279Z,95.87
2018-12-29T11:31:00.601Z,102.00
2018-12-29T11:33:30.221Z,97.60
2018-12-29T11:35:59.715Z,85.73
2018-12-29T11:38:29.324Z,98.73
2018-12-29T11:40:58.811Z,109.03
2018-12-29T11:43:28.337Z,87.57
2018-12-29T11:45:57.491Z,84.03
2018-12-29T11:48:27.442Z,92.87
2018-12-29T11:50:56.697Z,92.77
2018-12-29T11:53:26.231Z,96.03
2018-12-29T11:55:55.602Z,120.17
2018-12-29T11:58:25.472Z,90.00
2018-12-29T12:00:54.648Z,96.20
2018-12-29T12:03:23.939Z,108.80
2018-12-29T12:05:53.658Z,97.10
2018-12-29T12:08:23.162Z,96.57
2018-12-29T12:10:52.351Z,93.60
2018-12-29T12:13:21.570Z,94.83
2018-12-29T12:15:50.876Z,93.77
2018-12-29T12:18:20.787Z,102.03
2018-12-29T12:20:50.950Z,115.50
2018-12-29T12:23:20.640Z,83.70
2018-12-29T12:25:49.799Z,116.23
2018-12-29T12:28:19.009Z,147.47
2018-12-29T12:30:48.498Z,116.00
2018-12-29T12:33:18.445Z,129.50
2018-12-29T12:35:47.699Z,161.33
2018-12-29T12:38:17.122Z,115.60
2018-12-29T12:40:47.369Z,114.70
2018-12-29T12:43:17.871Z,134.03
2018-12-29T12:45:47.199Z,125.70
2018-12-29T12:48:16.383Z,124.60
2018-12-29T12:50:46.309Z,121.73
2018-12-29T12:53:15.538Z,115.00
2018-12-29T12:55:46.508Z,116.23
2018-12-29T12:58:16.060Z,127.83
2018-12-29T13:00:45.887Z,133.40
2018-12-29T13:03:16.091Z,142.50
2018-12-29T13:05:46.016Z,138.97
2018-12-29T13:08:15.539Z,143.70
2018-12-29T13:10:45.168Z,215.28
2018-12-29T13:13:14.344Z,169.87
2018-12-29T13:15:43.630Z,143.40
2018-12-29T13:18:13.553Z,168.10
2018-12-29T13:20:43.317Z,156.43
2018-12-29T13:23:12.824Z,152.33
2018-12-29T13:25:42.273Z,149.93
2018-12-29T13:28:12.200Z,162.90
2018-12-29T13:30:41.695Z,145.70
2018-12-29T13:33:10.872Z,132.43
2018-12-29T13:35:40.574Z,146.83
2018-12-29T13:38:10.074Z,165.13
2018-12-29T13:40:39.500Z,113.40
2018-12-29T13:43:08.827Z,130.70
2018-12-29T13:45:38.649Z,134.30
2018-12-29T13:48:08.139Z,121.73
2018-12-29T13:50:39.444Z,131.93
2018-12-29T13:53:09.310Z,114.60
2018-12-29T13:55:38.798Z,103.27
2018-12-29T13:58:08.647Z,104.03
2018-12-29T14:00:38.283Z,105.40
2018-12-29T14:03:07.775Z,109.07
2018-12-29T14:05:36.982Z,110.37
2018-12-29T14:08:06.544Z,117.53
2018-12-29T14:10:36.444Z,110.80
2018-12-29T14:13:05.609Z,109.93
2018-12-29T14:15:35.361Z,111.20
2018-12-29T14:18:05.070Z,113.97
2018-12-29T14:20:34.645Z,119.53
2018-12-29T14:23:03.965Z,117.77
2018-12-29T14:25:33.601Z,107.57
2018-12-29T14:28:02.861Z,113.40
2018-12-29T14:30:33.788Z,114.00
2018-12-29T14:33:03.303Z,111.57
2018-12-29T14:35:33.048Z,107.67
2018-12-29T14:38:02.869Z,104.23
2018-12-29T14:40:32.011Z,97.27
2018-12-29T14:43:02.918Z,103.07
2018-12-29T14:45:32.062Z,94.40
2018-12-29T14:48:01.787Z,114.83
2018-12-29T14:50:31.336Z,102.27
2018-12-29T14:53:00.951Z,117.67
2018-12-29T14:55:30.443Z,112.23
2018-12-29T14:57:59.935Z,111.27
2018-12-29T15:00:30.775Z,95.87
2018-12-29T15:03:01.074Z,100.00
2018-12-29T15:05:30.899Z,111.80
2018-12-29T15:08:02.963Z,115.87
2018-12-29T15:10:32.772Z,95.73
2018-12-29T15:13:04.751Z,111.50
2018-12-29T15:15:34.826Z,117.43
2018-12-29T15:18:04.989Z,105.10
2018-12-29T15:20:37.978Z,105.90
2018-12-29T15:23:07.982Z,116.20
2018-12-29T15:25:38.444Z,101.13
2018-12-29T15:28:09.686Z,122.97
2018-12-29T15:30:41.398Z,106.97
2018-12-29T15:33:11.012Z,105.90
2018-12-29T15:35:42.265Z,131.30
2018-12-29T15:38:14.172Z,98.30
2018-12-29T15:40:45.520Z,109.53
2018-12-29T15:43:15.773Z,97.77
2018-12-29T15:45:45.775Z,100.73
2018-12-29T15:48:15.933Z,105.00
2018-12-29T15:50:47.985Z,102.23
2018-12-29T15:53:18.008Z,85.27
2018-12-29T15:55:48.966Z,80.10
2018-12-29T15:58:22.067Z,83.73
2018-12-29T16:00:51.712Z,87.23
2018-12-29T16:03:21.395Z,95.03
2018-12-29T16:05:51.497Z,83.37
2018-12-29T16:08:21.131Z,79.20
2018-12-29T16:10:50.303Z,81.20
2018-12-29T16:13:19.532Z,84.30
2018-12-29T16:15:49.061Z,78.40
2018-12-29T16:18:18.625Z,70.57
2018-12-29T16:20:53.572Z,77.30
2018-12-29T16:23:19.051Z,72.07
2018-12-29T16:25:49.183Z,84.77
2018-12-29T16:28:18.711Z,81.00
2018-12-29T16:30:48.252Z,86.75
2018-12-29T16:33:18.251Z,81.00
2018-12-29T16:35:48.603Z,103.47
2018-12-29T16:38:18.294Z,88.40
2018-12-29T16:40:48.303Z,89.03
2018-12-29T16:43:17.954Z,90.77
2018-12-29T16:45:48.285Z,89.57
2018-12-29T16:48:18.107Z,97.07
2018-12-29T16:50:47.284Z,87.83
2018-12-29T16:53:16.418Z,82.27
2018-12-29T16:55:45.669Z,96.73
2018-12-29T16:58:14.888Z,86.53
2018-12-29T17:00:44.766Z,88.47
2018-12-29T17:03:13.919Z,90.27
2018-12-29T17:05:43.186Z,87.27
2018-12-29T17:08:12.388Z,80.87
2018-12-29T17:10:41.905Z,83.60
2018-12-29T17:13:11.781Z,97.77
2018-12-29T17:15:41.289Z,82.67
2018-12-29T17:18:11.308Z,90.67
2018-12-29T17:20:40.601Z,71.33
2018-12-29T17:23:10.111Z,67.83
2018-12-29T17:25:39.936Z,65.43
2018-12-29T17:28:09.473Z,69.53
2018-12-29T17:30:38.926Z,44.40
2018-12-29T17:33:08.134Z,53.17
2018-12-29T17:35:37.721Z,35.03
2018-12-29T17:38:06.897Z,40.30
2018-12-29T17:40:36.760Z,37.10
2018-12-29T17:43:06.150Z,32.93
2018-12-29T17:45:35.354Z,29.67
2018-12-29T17:48:04.578Z,30.67
2018-12-29T17:50:34.081Z,22.50
2018-12-29T17:53:03.506Z,23.63
2018-12-29T17:55:33.184Z,25.68
2018-12-29T17:58:02.542Z,27.80
2018-12-29T18:00:32.328Z,24.83
2018-12-29T18:03:01.493Z,27.27
2018-12-29T18:05:31.040Z,22.70
2018-12-29T18:08:00.748Z,17.40
2018-12-29T18:10:30.302Z,20.13
2018-12-29T18:12:59.830Z,31.23
2018-12-29T18:15:29.053Z,16.30
2018-12-29T18:17:59.487Z,19.90
2018-12-29T18:20:29.100Z,16.75
2018-12-29T18:22:58.241Z,16.70
2018-12-29T18:25:28.349Z,14.77
2018-12-29T18:27:57.497Z,15.90
2018-12-29T18:30:27.308Z,32.00
2018-12-29T18:32:56.802Z,19.80
2018-12-29T18:35:25.962Z,14.67
2018-12-29T18:37:55.253Z,18.50
2018-12-29T18:40:24.440Z,19.83
2018-12-29T18:42:53.629Z,24.90
2018-12-29T18:45:22.838Z,18.10
2018-12-29T18:47:52.027Z,29.13
2018-12-29T18:50:21.505Z,14.00
2018-12-29T18:52:51.009Z,18.23
2018-12-29T18:55:20.514Z,26.33
2018-12-29T18:57:50.299Z,14.13
2018-12-29T19:00:19.525Z,21.13
2018-12-29T19:02:49.030Z,23.10
2018-12-29T19:05:18.598Z,24.67
2018-12-29T19:07:47.755Z,34.83
2018-12-29T19:10:16.933Z,26.33
2018-12-29T19:12:47.915Z,26.03
2018-12-29T19:15:17.449Z,31.93
2018-12-29T19:17:47.336Z,14.60
2018-12-29T19:20:16.923Z,41.73
2018-12-29T19:22:46.593Z,47.60
2018-12-29T19:25:15.782Z,18.47
2018-12-29T19:27:45.353Z,22.73
2018-12-29T19:30:16.598Z,18.50
2018-12-29T19:32:45.438Z,17.60
2018-12-29T19:35:15.173Z,21.20
2018-12-29T19:37:44.351Z,19.70
2018-12-29T19:40:13.900Z,15.80
2018-12-29T19:42:43.843Z,16.97
2018-12-29T19:45:13.442Z,19.50
2018-12-29T19:47:42.639Z,16.67
2018-12-29T19:50:12.296Z,19.40
2018-12-29T19:52:41.518Z,41.43
2018-12-29T19:55:10.725Z,8.87
2018-12-29T19:57:40.258Z,24.50
2018-12-29T20:00:11.508Z,20.33
2018-12-29T20:02:41.597Z,22.03
2018-12-29T20:05:11.304Z,24.13
2018-12-29T20:07:40.809Z,23.60
2018-12-29T20:10:10.337Z,21.60
2018-12-29T20:12:39.838Z,25.43
2018-12-29T20:15:09.344Z,42.13
2018-12-29T20:17:38.860Z,38.90
2018-12-29T20:20:08.856Z,48.92
2018-12-29T20:22:38.874Z,28.63
2018-12-29T20:25:09.008Z,41.18
2018-12-29T20:27:38.304Z,32.53
2018-12-29T20:30:08.728Z,34.00
2018-12-29T20:32:38.454Z,23.87
2018-12-29T20:35:07.847Z,26.77
2018-12-29T20:37:37.273Z,23.83
2018-12-29T20:40:07.265Z,36.83
2018-12-29T20:42:36.541Z,21.70
2018-12-29T20:45:06.811Z,35.83
2018-12-29T20:47:36.092Z,30.40
2018-12-29T20:50:26.076Z,36.43
2018-12-29T20:52:56.303Z,25.80
2018-12-29T20:55:25.930Z,39.47
2018-12-29T20:57:56.605Z,23.93
2018-12-29T21:00:25.847Z,42.73
2018-12-29T21:02:56.213Z,28.30
2018-12-29T21:05:26.192Z,34.17
2018-12-29T21:07:55.403Z,15.33
2018-12-29T21:10:24.610Z,32.77
2018-12-29T21:12:54.277Z,23.03
2018-12-29T21:15:24.038Z,26.83
2018-12-29T21:17:54.280Z,20.87
2018-12-29T21:20:23.931Z,36.63
2018-12-29T21:22:53.776Z,27.50
2018-12-29T21:25:23.271Z,40.53
2018-12-29T21:27:53.274Z,36.27
2018-12-29T21:30:22.443Z,25.70
2018-12-29T21:32:51.978Z,36.30
2018-12-29T21:35:21.141Z,26.00
2018-12-29T21:37:50.304Z,38.57
2018-12-29T21:40:19.504Z,18.13
2018-12-29T21:42:48.995Z,30.80
2018-12-29T21:45:18.140Z,32.03
2018-12-29T21:47:47.448Z,27.27
2018-12-29T21:50:25.149Z,26.52
2018-12-29T21:52:49.596Z,23.93
2018-12-29T21:55:19.206Z,25.17
2018-12-29T21:57:48.353Z,19.93
2018-12-29T22:00:17.607Z,20.87
2018-12-29T22:02:46.736Z,18.63
2018-12-29T22:05:15.880Z,21.00
2018-12-29T22:07:45.097Z,19.87
2018-12-29T22:10:14.713Z,31.87
2018-12-29T22:12:44.360Z,21.40
2018-12-29T22:15:13.518Z,29.73
2018-12-29T22:17:43.274Z,26.43
2018-12-29T22:20:13.031Z,33.20
2018-12-29T22:22:42.375Z,34.87
2018-12-29T22:25:32.273Z,28.50
2018-12-29T22:28:01.465Z,17.17
2018-12-29T22:30:31.061Z,18.62
2018-12-29T22:33:00.636Z,24.60
2018-12-29T22:35:30.377Z,14.93
2018-12-29T22:37:59.611Z,17.40
2018-12-29T22:40:29.219Z,18.10
2018-12-29T22:42:58.425Z,16.80
2018-12-29T22:45:28.148Z,22.27
2018-12-29T22:47:58.094Z,32.17
2018-12-29T22:50:27.797Z,27.03
2018-12-29T22:52:57.377Z,22.80
2018-12-29T22:55:27.018Z,20.43
2018-12-29T22:57:57.333Z,24.53
2018-12-29T23:00:40.033Z,22.00
2018-12-29T23:03:09.302Z,19.40
2018-12-29T23:05:38.819Z,26.33
2018-12-29T23:08:08.203Z,22.77
2018-12-29T23:10:37.936Z,29.93
2018-12-29T23:13:07.776Z,20.40
2018-12-29T23:15:37.176Z,20.70
2018-12-29T23:18:06.539Z,24.27
2018-12-29T23:20:37.091Z,12.63
2018-12-29T23:23:06.287Z,32.80
2018-12-29T23:25:36.116Z,16.00
2018-12-29T23:28:05.512Z,16.67
2018-12-29T23:30:35.103Z,16.40
2018-12-29T23:33:04.583Z,13.83
2018-12-29T23:35:34.014Z,19.37
2018-12-29T23:38:03.809Z,15.83
2018-12-29T23:40:33.389Z,22.67
2018-12-29T23:43:02.934Z,17.00
2018-12-29T23:45:32.788Z,32.40
2018-12-29T23:48:02.316Z,12.03
2018-12-29T23:50:32.214Z,23.37
2018-12-29T23:53:01.728Z,16.20
2018-12-29T23:55:31.366Z,30.07
2018-12-29T23:58:01.238Z,13.27
